sensor_id;sensor_type;location;lat;lon;timestamp;pressure;altitude;pressure_sealevel;temperature;humidity
63691;BME280;49837;57.280;27.070;2022-07-29T00:00:30;100472.85;;;13.42;100.0
63691;BME280;49837;57.280;27.070;2022-07-29T00:01:31;100474.46;;;13.42;100.0
63691;BME280;49837;57.280;27.070;2022-07-29T00:02:31;100469.87;;;13.42;100.0
63691;BME280;49837;57.280;27.070;2022-07-29T00:03:32;100472.47;;;13.38;100.0
63691;BME280;49837;57.280;27.070;2022-07-29T00:04:35;100469.78;;;13.38;100.0
63691;BME280;49837;57.280;27.070;2022-07-29T00:05:32;100473.11;;;13.36;100.0
63691;BME280;49837;57.280;27.070;2022-07-29T00:06:33;100473.7;;;13.39;100.0
63691;BME280;49837;57.280;27.070;2022-07-29T00:07:33;100471.96;;;13.38;100.0
63691;BME280;49837;57.280;27.070;2022-07-29T00:08:34;100475.89;;;13.36;100.0
63691;BME280;49837;57.280;27.070;2022-07-29T00:09:34;100474.91;;;13.28;100.0
63691;BME280;49837;57.280;27.070;2022-07-29T00:10:37;100480.13;;;13.28;100.0
63691;BME280;49837;57.280;27.070;2022-07-29T00:11:38;100480.64;;;13.27;100.0
63691;BME280;49837;57.280;27.070;2022-07-29T00:12:38;100480.11;;;13.26;100.0
63691;BME280;49837;57.280;27.070;2022-07-29T00:13:38;100478.11;;;13.23;100.0
63691;BME280;49837;57.280;27.070;2022-07-29T00:14:39;100480.48;;;13.2;100.0
63691;BME280;49837;57.280;27.070;2022-07-29T00:15:39;100480.45;;;13.19;100.0
63691;BME280;49837;57.280;27.070;2022-07-29T00:16:40;100481.97;;;13.16;100.0
63691;BME280;49837;57.280;27.070;2022-07-29T00:17:40;100482.21;;;13.12;100.0
63691;BME280;49837;57.280;27.070;2022-07-29T00:18:40;100481.74;;;13.13;100.0
63691;BME280;49837;57.280;27.070;2022-07-29T00:19:41;100485.39;;;13.12;100.0
63691;BME280;49837;57.280;27.070;2022-07-29T00:20:42;100485.73;;;13.12;100.0
63691;BME280;49837;57.280;27.070;2022-07-29T00:21:42;100487.98;;;13.1;100.0
63691;BME280;49837;57.280;27.070;2022-07-29T00:22:43;100485.71;;;13.04;100.0
63691;BME280;49837;57.280;27.070;2022-07-29T00:23:43;100489.56;;;13.07;100.0
63691;BME280;49837;57.280;27.070;2022-07-29T00:24:43;100490.56;;;13.1;100.0
63691;BME280;49837;57.280;27.070;2022-07-29T00:25:44;100490.36;;;13.09;100.0
63691;BME280;49837;57.280;27.070;2022-07-29T00:26:44;100489.77;;;13.03;100.0
63691;BME280;49837;57.280;27.070;2022-07-29T00:27:45;100489.09;;;13.06;100.0
63691;BME280;49837;57.280;27.070;2022-07-29T00:28:45;100484.44;;;13.06;100.0
63691;BME280;49837;57.280;27.070;2022-07-29T00:29:45;100484.2;;;13.08;100.0
63691;BME280;49837;57.280;27.070;2022-07-29T00:30:46;100490.89;;;13.1;100.0
63691;BME280;49837;57.280;27.070;2022-07-29T00:31:46;100482.19;;;13.09;100.0
63691;BME280;49837;57.280;27.070;2022-07-29T00:32:47;100486.07;;;13.09;100.0
63691;BME280;49837;57.280;27.070;2022-07-29T00:33:47;100487.1;;;13.13;100.0
63691;BME280;49837;57.280;27.070;2022-07-29T00:34:48;100483.48;;;13.13;100.0
63691;BME280;49837;57.280;27.070;2022-07-29T00:35:48;100483.09;;;13.1;100.0
63691;BME280;49837;57.280;27.070;2022-07-29T00:36:48;100485.89;;;13.16;100.0
63691;BME280;49837;57.280;27.070;2022-07-29T00:37:49;100485.3;;;13.12;100.0
63691;BME280;49837;57.280;27.070;2022-07-29T00:38:50;100486.7;;;13.15;100.0
63691;BME280;49837;57.280;27.070;2022-07-29T00:39:50;100484.98;;;13.19;100.0
63691;BME280;49837;57.280;27.070;2022-07-29T00:40:50;100490.67;;;13.21;100.0
63691;BME280;49837;57.280;27.070;2022-07-29T00:41:51;100490.63;;;13.22;100.0
63691;BME280;49837;57.280;27.070;2022-07-29T00:42:52;100491.88;;;13.2;100.0
63691;BME280;49837;57.280;27.070;2022-07-29T00:43:52;100493.25;;;13.19;100.0
63691;BME280;49837;57.280;27.070;2022-07-29T00:44:52;100490.05;;;13.15;100.0
63691;BME280;49837;57.280;27.070;2022-07-29T00:45:52;100485.91;;;13.09;100.0
63691;BME280;49837;57.280;27.070;2022-07-29T00:46:53;100487.65;;;13.09;100.0
63691;BME280;49837;57.280;27.070;2022-07-29T00:47:53;100485.36;;;13.15;100.0
63691;BME280;49837;57.280;27.070;2022-07-29T00:48:54;100484.11;;;13.17;100.0
63691;BME280;49837;57.280;27.070;2022-07-29T00:49:54;100485.75;;;13.18;100.0
63691;BME280;49837;57.280;27.070;2022-07-29T00:50:57;100478.36;;;13.14;100.0
63691;BME280;49837;57.280;27.070;2022-07-29T00:51:55;100479.06;;;13.15;100.0
63691;BME280;49837;57.280;27.070;2022-07-29T00:52:55;100478.7;;;13.11;100.0
63691;BME280;49837;57.280;27.070;2022-07-29T00:53:56;100475.14;;;13.12;100.0
63691;BME280;49837;57.280;27.070;2022-07-29T00:54:57;100480.66;;;13.17;100.0
63691;BME280;49837;57.280;27.070;2022-07-29T00:55:57;100478.88;;;13.23;100.0
63691;BME280;49837;57.280;27.070;2022-07-29T00:57:01;100482.59;;;13.24;100.0
63691;BME280;49837;57.280;27.070;2022-07-29T00:57:59;100479.11;;;13.24;100.0
63691;BME280;49837;57.280;27.070;2022-07-29T00:58:59;100481.92;;;13.25;100.0
63691;BME280;49837;57.280;27.070;2022-07-29T01:00:00;100483.53;;;13.24;100.0
63691;BME280;49837;57.280;27.070;2022-07-29T01:01:00;100482.75;;;13.27;100.0
63691;BME280;49837;57.280;27.070;2022-07-29T01:02:01;100481.12;;;13.24;100.0
63691;BME280;49837;57.280;27.070;2022-07-29T01:03:01;100480.98;;;13.25;100.0
63691;BME280;49837;57.280;27.070;2022-07-29T01:04:01;100479.98;;;13.23;100.0
63691;BME280;49837;57.280;27.070;2022-07-29T01:05:03;100481.45;;;13.24;100.0
63691;BME280;49837;57.280;27.070;2022-07-29T01:06:02;100485.34;;;13.2;100.0
63691;BME280;49837;57.280;27.070;2022-07-29T01:07:03;100482.49;;;13.23;100.0
63691;BME280;49837;57.280;27.070;2022-07-29T01:08:03;100483.54;;;13.19;100.0
63691;BME280;49837;57.280;27.070;2022-07-29T01:09:03;100486.28;;;13.2;100.0
63691;BME280;49837;57.280;27.070;2022-07-29T01:10:06;100482.33;;;13.2;100.0
63691;BME280;49837;57.280;27.070;2022-07-29T01:11:05;100482.3;;;13.18;100.0
63691;BME280;49837;57.280;27.070;2022-07-29T01:12:06;100481.99;;;13.22;100.0
63691;BME280;49837;57.280;27.070;2022-07-29T01:13:06;100483.46;;;13.23;100.0
63691;BME280;49837;57.280;27.070;2022-07-29T01:14:07;100484.06;;;13.25;100.0
63691;BME280;49837;57.280;27.070;2022-07-29T01:15:08;100487.58;;;13.26;100.0
63691;BME280;49837;57.280;27.070;2022-07-29T01:16:13;100485.83;;;13.27;100.0
63691;BME280;49837;57.280;27.070;2022-07-29T01:17:24;100480.24;;;13.25;100.0
63691;BME280;49837;57.280;27.070;2022-07-29T01:29:43;100485.03;;;13.12;100.0
63691;BME280;49837;57.280;27.070;2022-07-29T01:30:44;100489.55;;;13.13;100.0
63691;BME280;49837;57.280;27.070;2022-07-29T01:32:47;100488.45;;;13.11;100.0
63691;BME280;49837;57.280;27.070;2022-07-29T01:33:50;100485.45;;;13.14;100.0
63691;BME280;49837;57.280;27.070;2022-07-29T01:34:52;100486.3;;;13.12;100.0
63691;BME280;49837;57.280;27.070;2022-07-29T01:35:50;100486.34;;;13.11;100.0
63691;BME280;49837;57.280;27.070;2022-07-29T01:36:57;100486.06;;;13.14;100.0
63691;BME280;49837;57.280;27.070;2022-07-29T01:39:11;100485.83;;;13.11;100.0
63691;BME280;49837;57.280;27.070;2022-07-29T01:40:02;100487.98;;;13.12;100.0
63691;BME280;49837;57.280;27.070;2022-07-29T01:46:18;100490.43;;;13.08;100.0
63691;BME280;49837;57.280;27.070;2022-07-29T01:47:20;100493.61;;;13.06;100.0
63691;BME280;49837;57.280;27.070;2022-07-29T01:49:28;100493.32;;;13.0;100.0
63691;BME280;49837;57.280;27.070;2022-07-29T01:51:36;100498.88;;;13.06;100.0
63691;BME280;49837;57.280;27.070;2022-07-29T01:52:41;100497.87;;;13.06;100.0
63691;BME280;49837;57.280;27.070;2022-07-29T01:53:39;100500.54;;;13.1;100.0
63691;BME280;49837;57.280;27.070;2022-07-29T01:54:43;100500.14;;;13.07;100.0
63691;BME280;49837;57.280;27.070;2022-07-29T01:55:44;100499.61;;;13.02;100.0
63691;BME280;49837;57.280;27.070;2022-07-29T01:56:45;100497.06;;;13.04;100.0
63691;BME280;49837;57.280;27.070;2022-07-29T01:57:47;100496.91;;;13.01;100.0
63691;BME280;49837;57.280;27.070;2022-07-29T01:58:46;100498.55;;;12.94;100.0
63691;BME280;49837;57.280;27.070;2022-07-29T01:59:47;100502.77;;;12.96;100.0
63691;BME280;49837;57.280;27.070;2022-07-29T02:00:48;100502.43;;;12.98;100.0
63691;BME280;49837;57.280;27.070;2022-07-29T02:01:49;100503.0;;;13.01;100.0
63691;BME280;49837;57.280;27.070;2022-07-29T02:02:52;100501.26;;;12.98;100.0
63691;BME280;49837;57.280;27.070;2022-07-29T02:03:53;100505.55;;;12.93;100.0
63691;BME280;49837;57.280;27.070;2022-07-29T02:04:53;100504.91;;;12.94;100.0
63691;BME280;49837;57.280;27.070;2022-07-29T02:05:53;100506.02;;;12.99;100.0
63691;BME280;49837;57.280;27.070;2022-07-29T02:06:54;100507.55;;;12.98;100.0
63691;BME280;49837;57.280;27.070;2022-07-29T02:07:55;100510.67;;;12.89;100.0
63691;BME280;49837;57.280;27.070;2022-07-29T02:08:56;100508.23;;;12.88;100.0
63691;BME280;49837;57.280;27.070;2022-07-29T02:09:56;100512.38;;;12.86;100.0
63691;BME280;49837;57.280;27.070;2022-07-29T02:10:57;100512.92;;;12.87;100.0
63691;BME280;49837;57.280;27.070;2022-07-29T02:11:57;100509.41;;;12.82;100.0
63691;BME280;49837;57.280;27.070;2022-07-29T02:12:58;100510.88;;;12.81;100.0
63691;BME280;49837;57.280;27.070;2022-07-29T02:13:58;100509.5;;;12.82;100.0
63691;BME280;49837;57.280;27.070;2022-07-29T02:14:59;100517.23;;;12.81;100.0
63691;BME280;49837;57.280;27.070;2022-07-29T02:15:59;100509.34;;;12.8;100.0
63691;BME280;49837;57.280;27.070;2022-07-29T02:17:00;100512.82;;;12.76;100.0
63691;BME280;49837;57.280;27.070;2022-07-29T02:18:05;100513.49;;;12.73;100.0
63691;BME280;49837;57.280;27.070;2022-07-29T02:19:02;100512.02;;;12.69;100.0
63691;BME280;49837;57.280;27.070;2022-07-29T02:20:02;100513.59;;;12.7;100.0
63691;BME280;49837;57.280;27.070;2022-07-29T02:21:01;100513.09;;;12.7;100.0
63691;BME280;49837;57.280;27.070;2022-07-29T02:22:02;100509.41;;;12.65;100.0
63691;BME280;49837;57.280;27.070;2022-07-29T02:23:02;100510.45;;;12.64;100.0
63691;BME280;49837;57.280;27.070;2022-07-29T02:24:04;100508.53;;;12.66;100.0
63691;BME280;49837;57.280;27.070;2022-07-29T02:25:04;100514.99;;;12.6;100.0
63691;BME280;49837;57.280;27.070;2022-07-29T02:26:05;100520.38;;;12.56;100.0
63691;BME280;49837;57.280;27.070;2022-07-29T02:27:07;100517.06;;;12.55;100.0
63691;BME280;49837;57.280;27.070;2022-07-29T02:28:06;100519.23;;;12.56;100.0
63691;BME280;49837;57.280;27.070;2022-07-29T02:29:06;100517.56;;;12.55;100.0
63691;BME280;49837;57.280;27.070;2022-07-29T02:30:07;100516.89;;;12.53;100.0
63691;BME280;49837;57.280;27.070;2022-07-29T02:31:07;100519.2;;;12.51;100.0
63691;BME280;49837;57.280;27.070;2022-07-29T02:32:09;100518.73;;;12.51;100.0
63691;BME280;49837;57.280;27.070;2022-07-29T02:33:10;100519.97;;;12.49;100.0
63691;BME280;49837;57.280;27.070;2022-07-29T02:34:10;100522.11;;;12.49;100.0
63691;BME280;49837;57.280;27.070;2022-07-29T02:35:10;100520.53;;;12.49;100.0
63691;BME280;49837;57.280;27.070;2022-07-29T02:36:10;100515.95;;;12.44;100.0
63691;BME280;49837;57.280;27.070;2022-07-29T02:37:11;100514.67;;;12.44;100.0
63691;BME280;49837;57.280;27.070;2022-07-29T02:38:14;100521.57;;;12.46;100.0
63691;BME280;49837;57.280;27.070;2022-07-29T02:39:14;100520.8;;;12.41;100.0
63691;BME280;49837;57.280;27.070;2022-07-29T02:40:15;100519.79;;;12.41;100.0
63691;BME280;49837;57.280;27.070;2022-07-29T02:41:17;100521.33;;;12.4;100.0
63691;BME280;49837;57.280;27.070;2022-07-29T02:42:17;100523.77;;;12.42;100.0
63691;BME280;49837;57.280;27.070;2022-07-29T02:43:17;100522.87;;;12.39;100.0
63691;BME280;49837;57.280;27.070;2022-07-29T02:44:19;100524.3;;;12.38;100.0
63691;BME280;49837;57.280;27.070;2022-07-29T02:45:18;100525.64;;;12.36;100.0
63691;BME280;49837;57.280;27.070;2022-07-29T02:46:23;100521.92;;;12.35;100.0
63691;BME280;49837;57.280;27.070;2022-07-29T02:47:23;100526.77;;;12.34;100.0
63691;BME280;49837;57.280;27.070;2022-07-29T02:48:31;100531.18;;;12.3;100.0
63691;BME280;49837;57.280;27.070;2022-07-29T02:49:40;100530.08;;;12.31;100.0
63691;BME280;49837;57.280;27.070;2022-07-29T02:50:33;100532.03;;;12.24;100.0
63691;BME280;49837;57.280;27.070;2022-07-29T02:51:43;100534.41;;;12.23;100.0
63691;BME280;49837;57.280;27.070;2022-07-29T02:52:48;100531.58;;;12.28;100.0
63691;BME280;49837;57.280;27.070;2022-07-29T02:53:38;100533.69;;;12.27;100.0
63691;BME280;49837;57.280;27.070;2022-07-29T02:54:51;100532.55;;;12.26;100.0
63691;BME280;49837;57.280;27.070;2022-07-29T02:55:51;100530.34;;;12.27;100.0
63691;BME280;49837;57.280;27.070;2022-07-29T02:56:48;100534.02;;;12.3;100.0
63691;BME280;49837;57.280;27.070;2022-07-29T02:57:51;100533.75;;;12.28;100.0
63691;BME280;49837;57.280;27.070;2022-07-29T02:58:56;100536.38;;;12.22;100.0
63691;BME280;49837;57.280;27.070;2022-07-29T02:59:59;100538.3;;;12.16;100.0
63691;BME280;49837;57.280;27.070;2022-07-29T03:01:02;100535.62;;;12.13;100.0
63691;BME280;49837;57.280;27.070;2022-07-29T03:02:04;100538.12;;;12.13;100.0
63691;BME280;49837;57.280;27.070;2022-07-29T03:03:04;100536.67;;;12.18;100.0
63691;BME280;49837;57.280;27.070;2022-07-29T03:04:04;100542.12;;;12.22;100.0
63691;BME280;49837;57.280;27.070;2022-07-29T03:05:06;100542.23;;;12.24;100.0
63691;BME280;49837;57.280;27.070;2022-07-29T03:06:07;100543.12;;;12.2;100.0
63691;BME280;49837;57.280;27.070;2022-07-29T03:07:10;100542.91;;;12.26;100.0
63691;BME280;49837;57.280;27.070;2022-07-29T03:08:11;100544.33;;;12.29;100.0
63691;BME280;49837;57.280;27.070;2022-07-29T03:09:12;100545.11;;;12.34;100.0
63691;BME280;49837;57.280;27.070;2022-07-29T03:10:12;100544.97;;;12.33;100.0
63691;BME280;49837;57.280;27.070;2022-07-29T03:11:12;100547.23;;;12.3;100.0
63691;BME280;49837;57.280;27.070;2022-07-29T03:12:12;100545.67;;;12.32;100.0
63691;BME280;49837;57.280;27.070;2022-07-29T03:13:13;100552.7;;;12.37;100.0
63691;BME280;49837;57.280;27.070;2022-07-29T03:14:13;100550.75;;;12.33;100.0
63691;BME280;49837;57.280;27.070;2022-07-29T03:15:14;100553.83;;;12.31;100.0
63691;BME280;49837;57.280;27.070;2022-07-29T03:16:14;100552.05;;;12.28;100.0
63691;BME280;49837;57.280;27.070;2022-07-29T03:17:14;100552.36;;;12.21;100.0
63691;BME280;49837;57.280;27.070;2022-07-29T03:18:15;100553.78;;;12.24;100.0
63691;BME280;49837;57.280;27.070;2022-07-29T03:19:16;100555.73;;;12.31;100.0
63691;BME280;49837;57.280;27.070;2022-07-29T03:20:16;100551.41;;;12.27;100.0
63691;BME280;49837;57.280;27.070;2022-07-29T03:21:16;100555.91;;;12.34;100.0
63691;BME280;49837;57.280;27.070;2022-07-29T03:22:17;100555.42;;;12.38;100.0
63691;BME280;49837;57.280;27.070;2022-07-29T03:23:21;100557.32;;;12.37;100.0
63691;BME280;49837;57.280;27.070;2022-07-29T03:25:22;100558.17;;;12.41;100.0
63691;BME280;49837;57.280;27.070;2022-07-29T03:26:23;100556.59;;;12.41;100.0
63691;BME280;49837;57.280;27.070;2022-07-29T03:27:23;100559.44;;;12.41;100.0
63691;BME280;49837;57.280;27.070;2022-07-29T03:28:24;100558.2;;;12.41;100.0
63691;BME280;49837;57.280;27.070;2022-07-29T03:29:24;100558.42;;;12.34;100.0
63691;BME280;49837;57.280;27.070;2022-07-29T03:30:25;100558.77;;;12.3;100.0
63691;BME280;49837;57.280;27.070;2022-07-29T03:31:25;100562.95;;;12.3;100.0
63691;BME280;49837;57.280;27.070;2022-07-29T03:32:26;100561.52;;;12.28;100.0
63691;BME280;49837;57.280;27.070;2022-07-29T03:33:26;100559.04;;;12.27;100.0
63691;BME280;49837;57.280;27.070;2022-07-29T03:34:27;100561.22;;;12.32;100.0
63691;BME280;49837;57.280;27.070;2022-07-29T03:35:27;100561.12;;;12.3;100.0
63691;BME280;49837;57.280;27.070;2022-07-29T03:36:28;100558.27;;;12.3;100.0
63691;BME280;49837;57.280;27.070;2022-07-29T03:37:28;100558.03;;;12.27;100.0
63691;BME280;49837;57.280;27.070;2022-07-29T03:38:30;100558.2;;;12.25;100.0
63691;BME280;49837;57.280;27.070;2022-07-29T03:39:33;100564.04;;;12.22;100.0
63691;BME280;49837;57.280;27.070;2022-07-29T03:41:38;100565.67;;;12.12;100.0
63691;BME280;49837;57.280;27.070;2022-07-29T03:42:39;100563.17;;;12.15;100.0
63691;BME280;49837;57.280;27.070;2022-07-29T03:43:41;100564.98;;;12.15;100.0
63691;BME280;49837;57.280;27.070;2022-07-29T03:44:43;100569.58;;;12.1;100.0
63691;BME280;49837;57.280;27.070;2022-07-29T03:45:44;100568.65;;;12.1;100.0
63691;BME280;49837;57.280;27.070;2022-07-29T03:46:43;100568.33;;;12.16;100.0
63691;BME280;49837;57.280;27.070;2022-07-29T03:47:48;100572.02;;;12.15;100.0
63691;BME280;49837;57.280;27.070;2022-07-29T03:48:46;100571.88;;;12.15;100.0
63691;BME280;49837;57.280;27.070;2022-07-29T03:49:48;100569.35;;;12.09;100.0
63691;BME280;49837;57.280;27.070;2022-07-29T03:50:48;100576.01;;;12.1;100.0
63691;BME280;49837;57.280;27.070;2022-07-29T03:51:48;100573.0;;;12.1;100.0
63691;BME280;49837;57.280;27.070;2022-07-29T03:52:49;100577.98;;;12.02;100.0
63691;BME280;49837;57.280;27.070;2022-07-29T03:53:49;100575.42;;;12.05;100.0
63691;BME280;49837;57.280;27.070;2022-07-29T03:54:49;100574.92;;;12.07;100.0
63691;BME280;49837;57.280;27.070;2022-07-29T03:55:53;100579.33;;;12.14;100.0
63691;BME280;49837;57.280;27.070;2022-07-29T03:56:52;100578.64;;;12.17;100.0
63691;BME280;49837;57.280;27.070;2022-07-29T03:57:53;100583.12;;;12.19;100.0
63691;BME280;49837;57.280;27.070;2022-07-29T03:58:53;100580.64;;;12.17;100.0
63691;BME280;49837;57.280;27.070;2022-07-29T03:59:54;100575.69;;;12.07;100.0
63691;BME280;49837;57.280;27.070;2022-07-29T04:00:54;100576.56;;;12.06;100.0
63691;BME280;49837;57.280;27.070;2022-07-29T04:01:55;100574.81;;;12.11;100.0
63691;BME280;49837;57.280;27.070;2022-07-29T04:02:56;100576.59;;;12.07;100.0
63691;BME280;49837;57.280;27.070;2022-07-29T04:03:56;100576.03;;;12.07;100.0
63691;BME280;49837;57.280;27.070;2022-07-29T04:04:56;100579.04;;;12.07;100.0
63691;BME280;49837;57.280;27.070;2022-07-29T04:06:04;100577.08;;;12.11;100.0
63691;BME280;49837;57.280;27.070;2022-07-29T04:06:57;100578.41;;;12.2;99.79
63691;BME280;49837;57.280;27.070;2022-07-29T04:07:57;100585.33;;;12.26;99.3
63691;BME280;49837;57.280;27.070;2022-07-29T04:08:58;100583.61;;;12.24;99.01
63691;BME280;49837;57.280;27.070;2022-07-29T04:09:58;100587.2;;;12.25;98.67
63691;BME280;49837;57.280;27.070;2022-07-29T04:11:00;100588.59;;;12.2;99.09
63691;BME280;49837;57.280;27.070;2022-07-29T04:12:00;100588.33;;;12.15;99.48
63691;BME280;49837;57.280;27.070;2022-07-29T04:13:00;100588.46;;;12.14;99.46
63691;BME280;49837;57.280;27.070;2022-07-29T04:14:00;100587.73;;;12.24;99.93
63691;BME280;49837;57.280;27.070;2022-07-29T04:15:03;100586.89;;;12.07;99.12
63691;BME280;49837;57.280;27.070;2022-07-29T04:16:01;100587.71;;;12.01;98.84
63691;BME280;49837;57.280;27.070;2022-07-29T04:17:02;100590.14;;;12.07;98.97
63691;BME280;49837;57.280;27.070;2022-07-29T04:18:03;100589.05;;;12.01;99.49
63691;BME280;49837;57.280;27.070;2022-07-29T04:19:03;100586.76;;;12.05;99.97
63691;BME280;49837;57.280;27.070;2022-07-29T04:20:04;100588.01;;;12.09;100.0
63691;BME280;49837;57.280;27.070;2022-07-29T04:21:03;100585.11;;;12.14;99.96
63691;BME280;49837;57.280;27.070;2022-07-29T04:22:05;100590.3;;;12.16;100.0
63691;BME280;49837;57.280;27.070;2022-07-29T04:23:05;100594.22;;;12.17;100.0
63691;BME280;49837;57.280;27.070;2022-07-29T04:24:06;100594.88;;;12.19;99.63
63691;BME280;49837;57.280;27.070;2022-07-29T04:25:06;100593.78;;;12.15;99.02
63691;BME280;49837;57.280;27.070;2022-07-29T04:26:06;100596.05;;;12.14;98.06
63691;BME280;49837;57.280;27.070;2022-07-29T04:27:07;100598.92;;;12.13;98.55
63691;BME280;49837;57.280;27.070;2022-07-29T04:28:07;100597.16;;;12.22;98.69
63691;BME280;49837;57.280;27.070;2022-07-29T04:29:07;100596.94;;;12.26;98.7
63691;BME280;49837;57.280;27.070;2022-07-29T04:30:09;100596.05;;;12.23;98.38
63691;BME280;49837;57.280;27.070;2022-07-29T04:31:09;100594.02;;;12.26;98.23
63691;BME280;49837;57.280;27.070;2022-07-29T04:32:09;100595.6;;;12.29;98.43
63691;BME280;49837;57.280;27.070;2022-07-29T04:33:10;100595.11;;;12.32;98.67
63691;BME280;49837;57.280;27.070;2022-07-29T04:34:11;100596.44;;;12.29;98.07
63691;BME280;49837;57.280;27.070;2022-07-29T04:35:10;100598.78;;;12.29;98.14
63691;BME280;49837;57.280;27.070;2022-07-29T04:36:11;100594.59;;;12.26;98.07
63691;BME280;49837;57.280;27.070;2022-07-29T04:37:16;100595.41;;;12.3;97.44
63691;BME280;49837;57.280;27.070;2022-07-29T04:38:16;100591.45;;;12.39;96.98
63691;BME280;49837;57.280;27.070;2022-07-29T04:39:17;100599.44;;;12.48;96.96
63691;BME280;49837;57.280;27.070;2022-07-29T04:40:19;100597.94;;;12.51;96.95
63691;BME280;49837;57.280;27.070;2022-07-29T04:41:19;100596.94;;;12.52;97.04
63691;BME280;49837;57.280;27.070;2022-07-29T04:42:20;100599.12;;;12.43;96.32
63691;BME280;49837;57.280;27.070;2022-07-29T04:43:24;100598.7;;;12.51;96.43
63691;BME280;49837;57.280;27.070;2022-07-29T04:44:24;100603.77;;;12.54;96.46
63691;BME280;49837;57.280;27.070;2022-07-29T04:45:25;100600.3;;;12.42;95.94
63691;BME280;49837;57.280;27.070;2022-07-29T04:46:25;100598.95;;;12.4;95.9
63691;BME280;49837;57.280;27.070;2022-07-29T04:47:26;100600.88;;;12.5;95.94
63691;BME280;49837;57.280;27.070;2022-07-29T04:48:26;100600.62;;;12.54;95.73
63691;BME280;49837;57.280;27.070;2022-07-29T04:49:27;100600.16;;;12.55;95.41
63691;BME280;49837;57.280;27.070;2022-07-29T04:50:27;100602.77;;;12.58;94.41
63691;BME280;49837;57.280;27.070;2022-07-29T04:51:27;100602.54;;;12.56;94.59
63691;BME280;49837;57.280;27.070;2022-07-29T04:52:28;100597.23;;;12.47;93.78
63691;BME280;49837;57.280;27.070;2022-07-29T04:53:28;100599.09;;;12.44;93.62
63691;BME280;49837;57.280;27.070;2022-07-29T04:54:29;100602.39;;;12.54;93.73
63691;BME280;49837;57.280;27.070;2022-07-29T04:55:29;100602.13;;;12.56;93.5
63691;BME280;49837;57.280;27.070;2022-07-29T04:56:30;100603.65;;;12.61;93.47
63691;BME280;49837;57.280;27.070;2022-07-29T04:57:30;100603.72;;;12.62;93.66
63691;BME280;49837;57.280;27.070;2022-07-29T04:58:31;100606.05;;;12.72;93.94
63691;BME280;49837;57.280;27.070;2022-07-29T04:59:31;100604.06;;;12.86;93.66
63691;BME280;49837;57.280;27.070;2022-07-29T05:00:31;100602.35;;;12.86;93.37
63691;BME280;49837;57.280;27.070;2022-07-29T05:01:32;100611.69;;;12.8;92.59
63691;BME280;49837;57.280;27.070;2022-07-29T05:02:33;100610.95;;;12.82;92.94
63691;BME280;49837;57.280;27.070;2022-07-29T05:03:33;100608.44;;;12.61;90.94
63691;BME280;49837;57.280;27.070;2022-07-29T05:04:33;100609.88;;;12.6;92.26
63691;BME280;49837;57.280;27.070;2022-07-29T05:05:34;100608.73;;;12.73;92.5
63691;BME280;49837;57.280;27.070;2022-07-29T05:06:34;100612.97;;;12.68;91.14
63691;BME280;49837;57.280;27.070;2022-07-29T05:07:34;100612.91;;;12.68;91.42
63691;BME280;49837;57.280;27.070;2022-07-29T05:08:35;100613.61;;;12.7;90.53
63691;BME280;49837;57.280;27.070;2022-07-29T05:09:35;100612.74;;;12.7;90.68
63691;BME280;49837;57.280;27.070;2022-07-29T05:10:36;100613.95;;;12.71;90.86
63691;BME280;49837;57.280;27.070;2022-07-29T05:11:36;100615.76;;;12.72;91.25
63691;BME280;49837;57.280;27.070;2022-07-29T05:12:36;100619.77;;;12.72;90.89
63691;BME280;49837;57.280;27.070;2022-07-29T05:13:37;100615.14;;;12.68;91.2
63691;BME280;49837;57.280;27.070;2022-07-29T05:14:38;100616.55;;;12.82;91.13
63691;BME280;49837;57.280;27.070;2022-07-29T05:15:38;100615.91;;;12.84;90.31
63691;BME280;49837;57.280;27.070;2022-07-29T05:16:39;100618.09;;;12.86;90.42
63691;BME280;49837;57.280;27.070;2022-07-29T05:17:39;100614.18;;;12.99;90.19
63691;BME280;49837;57.280;27.070;2022-07-29T05:18:40;100616.36;;;13.04;89.35
63691;BME280;49837;57.280;27.070;2022-07-29T05:19:40;100619.98;;;13.05;89.5
63691;BME280;49837;57.280;27.070;2022-07-29T05:20:41;100623.45;;;13.02;88.98
63691;BME280;49837;57.280;27.070;2022-07-29T05:21:41;100617.46;;;12.98;88.66
63691;BME280;49837;57.280;27.070;2022-07-29T05:22:41;100619.14;;;12.98;88.23
63691;BME280;49837;57.280;27.070;2022-07-29T05:23:42;100621.02;;;13.09;88.83
63691;BME280;49837;57.280;27.070;2022-07-29T05:24:42;100619.58;;;13.13;88.39
63691;BME280;49837;57.280;27.070;2022-07-29T05:25:43;100624.23;;;13.19;88.27
63691;BME280;49837;57.280;27.070;2022-07-29T05:26:43;100624.5;;;13.21;87.54
63691;BME280;49837;57.280;27.070;2022-07-29T05:27:43;100624.64;;;13.19;87.62
63691;BME280;49837;57.280;27.070;2022-07-29T05:28:44;100621.05;;;13.12;87.7
63691;BME280;49837;57.280;27.070;2022-07-29T05:29:44;100622.8;;;13.19;88.54
63691;BME280;49837;57.280;27.070;2022-07-29T05:30:45;100620.89;;;13.16;87.12
63691;BME280;49837;57.280;27.070;2022-07-29T05:31:45;100619.78;;;13.19;86.78
63691;BME280;49837;57.280;27.070;2022-07-29T05:32:46;100618.23;;;13.31;87.26
63691;BME280;49837;57.280;27.070;2022-07-29T05:33:46;100618.46;;;13.39;86.93
63691;BME280;49837;57.280;27.070;2022-07-29T05:34:46;100615.56;;;13.53;86.58
63691;BME280;49837;57.280;27.070;2022-07-29T05:35:48;100620.34;;;13.6;86.12
63691;BME280;49837;57.280;27.070;2022-07-29T05:36:48;100621.16;;;13.54;85.46
63691;BME280;49837;57.280;27.070;2022-07-29T05:37:48;100621.36;;;13.55;85.69